createdAt,value
2022-12-08T00:02:46.786Z,4.20
2022-12-08T00:09:47.294Z,4.20
2022-12-08T00:16:47.907Z,4.20
2022-12-08T00:23:49.312Z,4.20
2022-12-08T00:30:49.675Z,4.20
2022-12-08T00:37:50.007Z,4.20
2022-12-08T00:44:50.520Z,4.20
2022-12-08T00:51:50.907Z,4.20
2022-12-08T00:58:51.596Z,4.20
2022-12-08T01:05:52.765Z,4.30
2022-12-08T01:12:53.144Z,4.30
2022-12-08T01:19:53.845Z,4.30
2022-12-08T01:26:54.172Z,4.30
2022-12-08T01:33:54.601Z,4.30
2022-12-08T01:40:54.973Z,4.30
2022-12-08T01:48:09.331Z,4.40
2022-12-08T01:55:22.062Z,4.40
2022-12-08T02:02:24.208Z,4.40
2022-12-08T02:09:25.268Z,4.40
2022-12-08T02:16:44.700Z,4.40
2022-12-08T02:24:14.467Z,4.40
2022-12-08T02:31:30.995Z,4.40
2022-12-08T02:38:34.255Z,4.40
2022-12-08T02:45:56.533Z,4.50
2022-12-08T02:52:56.636Z,4.40
2022-12-08T03:00:15.454Z,4.50
2022-12-08T03:07:40.590Z,4.50
2022-12-08T03:14:45.480Z,4.50
2022-12-08T03:22:00.279Z,4.50
2022-12-08T03:29:00.772Z,4.50
2022-12-08T03:36:04.268Z,4.50
2022-12-08T03:43:04.885Z,4.50
2022-12-08T03:50:06.482Z,4.50
2022-12-08T03:57:07.123Z,4.40
2022-12-08T04:04:07.739Z,4.40
2022-12-08T04:11:08.493Z,4.40
2022-12-08T04:18:08.911Z,4.40
2022-12-08T04:25:09.472Z,4.40
2022-12-08T04:32:09.925Z,4.50
2022-12-08T04:39:10.403Z,4.50
2022-12-08T04:46:11.427Z,4.40
2022-12-08T04:53:13.258Z,4.50
2022-12-08T05:00:14.083Z,4.40
2022-12-08T05:07:14.491Z,4.40
2022-12-08T05:14:16.148Z,4.30
2022-12-08T05:21:16.464Z,4.40
2022-12-08T05:28:40.740Z,4.40
2022-12-08T05:35:37.345Z,4.40
2022-12-08T05:42:37.770Z,4.50
2022-12-08T05:49:38.158Z,4.50
2022-12-08T05:56:38.432Z,4.40
2022-12-08T06:03:38.939Z,4.40
2022-12-08T06:10:43.743Z,4.40
2022-12-08T06:17:44.447Z,4.40
2022-12-08T06:24:44.862Z,4.30
2022-12-08T06:31:45.377Z,4.30
2022-12-08T06:38:45.964Z,4.30
2022-12-08T06:45:46.570Z,4.20
2022-12-08T06:52:56.950Z,4.20
2022-12-08T07:00:01.821Z,4.10
2022-12-08T07:07:02.555Z,4.00
2022-12-08T07:14:02.964Z,4.00
2022-12-08T07:21:09.419Z,4.00
2022-12-08T07:28:10.883Z,4.00
2022-12-08T07:35:11.331Z,3.90
2022-12-08T07:42:11.613Z,3.90
2022-12-08T07:49:12.117Z,3.90
2022-12-08T07:56:13.886Z,3.90
2022-12-08T08:03:14.256Z,4.00
2022-12-08T08:10:14.642Z,3.90
2022-12-08T08:17:15.245Z,3.90
2022-12-08T08:24:15.605Z,3.80
2022-12-08T08:31:16.319Z,3.70
2022-12-08T08:38:17.120Z,3.60
2022-12-08T08:45:17.239Z,3.60
2022-12-08T08:52:17.478Z,3.70
2022-12-08T08:59:17.890Z,3.80
2022-12-08T09:06:18.872Z,3.80
2022-12-08T09:13:19.191Z,3.90
2022-12-08T09:20:19.828Z,3.90
2022-12-08T09:27:20.266Z,3.90
2022-12-08T09:34:20.680Z,4.00
2022-12-08T09:41:38.814Z,4.00
2022-12-08T09:48:47.321Z,4.00
2022-12-08T09:55:56.264Z,4.10
2022-12-08T10:02:57.423Z,4.10
2022-12-08T10:10:07.822Z,4.10
2022-12-08T10:17:15.863Z,4.20
2022-12-08T10:24:33.944Z,4.10
2022-12-08T10:31:34.278Z,4.10
2022-12-08T10:38:35.550Z,4.10
2022-12-08T10:45:41.694Z,4.10
2022-12-08T10:52:42.008Z,4.10
2022-12-08T10:59:42.517Z,4.00
2022-12-08T11:06:43.761Z,4.10
2022-12-08T11:13:44.168Z,4.10
2022-12-08T11:20:44.564Z,4.10
2022-12-08T11:27:50.163Z,4.10
2022-12-08T11:35:03.957Z,4.20
2022-12-08T11:42:11.201Z,4.20
2022-12-08T11:49:14.188Z,4.20
2022-12-08T11:56:29.620Z,4.20
2022-12-08T12:03:41.035Z,4.20
2022-12-08T12:11:07.287Z,4.20
2022-12-08T12:18:35.575Z,4.30
2022-12-08T12:25:37.932Z,4.30
2022-12-08T12:32:58.087Z,4.40
2022-12-08T12:40:07.273Z,4.50
2022-12-08T12:47:13.138Z,4.50
2022-12-08T12:54:25.537Z,4.60
2022-12-08T13:01:54.459Z,4.70
2022-12-08T13:08:56.224Z,4.80
2022-12-08T13:16:19.235Z,4.80
2022-12-08T13:23:45.088Z,4.90
2022-12-08T13:30:50.409Z,4.80
2022-12-08T13:37:55.174Z,4.80
2022-12-08T14:00:05.906Z,4.90
2022-12-08T14:07:13.885Z,4.90
2022-12-08T14:14:53.936Z,4.80
2022-12-08T14:21:54.169Z,4.80
2022-12-08T14:28:54.375Z,4.80
2022-12-08T14:35:56.139Z,4.80
2022-12-08T14:43:14.869Z,4.80
2022-12-08T14:50:40.426Z,4.80
2022-12-08T14:57:40.531Z,4.70
2022-12-08T15:04:47.554Z,4.70
2022-12-08T15:11:59.476Z,4.60
2022-12-08T15:19:16.435Z,4.60
2022-12-08T15:26:22.969Z,4.50
2022-12-08T15:33:23.273Z,4.40
2022-12-08T15:40:25.893Z,4.40
2022-12-08T15:47:27.240Z,4.40
2022-12-08T15:54:27.377Z,4.40
2022-12-08T16:01:27.856Z,4.40
2022-12-08T16:08:47.404Z,4.40
2022-12-08T16:16:00.801Z,4.50
2022-12-08T16:23:13.403Z,4.40
2022-12-08T16:30:21.606Z,4.40
2022-12-08T16:37:23.965Z,4.40
2022-12-08T16:44:24.322Z,4.40
2022-12-08T16:51:27.225Z,4.40
2022-12-08T16:58:29.881Z,4.30
2022-12-08T17:05:30.446Z,4.30
2022-12-08T17:12:30.630Z,4.30
2022-12-08T17:19:31.653Z,4.30
2022-12-08T17:26:32.191Z,4.30
2022-12-08T17:33:32.334Z,4.20
2022-12-08T17:40:32.776Z,4.20
2022-12-08T17:47:33.297Z,4.10
2022-12-08T17:54:34.041Z,4.00
2022-12-08T18:01:35.003Z,4.00
2022-12-08T18:08:35.968Z,4.00
2022-12-08T18:15:39.276Z,4.00
2022-12-08T18:22:39.711Z,4.00
2022-12-08T18:29:40.328Z,3.90
2022-12-08T18:36:40.493Z,3.90
2022-12-08T18:43:41.032Z,3.80
2022-12-08T18:50:44.592Z,3.80
2022-12-08T18:57:45.356Z,3.70
2022-12-08T19:04:45.629Z,3.60
2022-12-08T19:11:46.205Z,3.70
2022-12-08T19:18:46.822Z,3.70
2022-12-08T19:25:46.985Z,3.70
2022-12-08T19:32:47.411Z,3.70
2022-12-08T19:40:06.657Z,3.60
2022-12-08T19:47:07.637Z,3.50
2022-12-08T19:54:08.655Z,3.50
2022-12-08T20:01:09.082Z,3.40
2022-12-08T20:08:09.654Z,3.40
2022-12-08T20:15:10.604Z,3.30
2022-12-08T20:22:11.041Z,3.30
2022-12-08T20:29:11.989Z,3.40
2022-12-08T20:36:18.636Z,3.40
2022-12-08T20:43:19.028Z,3.40
2022-12-08T20:50:19.562Z,3.40
2022-12-08T20:57:21.256Z,3.40
2022-12-08T21:04:23.199Z,3.40
2022-12-08T21:11:23.676Z,3.40
2022-12-08T21:18:24.564Z,3.30
2022-12-08T21:25:24.930Z,3.30
2022-12-08T21:32:30.052Z,3.30
2022-12-08T21:39:31.195Z,3.30
2022-12-08T21:46:31.665Z,3.30
2022-12-08T21:53:32.018Z,3.30
2022-12-08T22:00:32.343Z,3.30
2022-12-08T22:07:32.742Z,3.30
2022-12-08T22:14:33.241Z,3.30
2022-12-08T22:21:33.613Z,3.30
2022-12-08T22:28:37.797Z,3.30
2022-12-08T22:35:38.165Z,3.30
2022-12-08T22:42:38.666Z,3.30
2022-12-08T22:49:39.254Z,3.30
2022-12-08T22:56:39.551Z,3.30
2022-12-08T23:03:39.983Z,3.40
2022-12-08T23:10:40.996Z,3.40
2022-12-08T23:17:41.700Z,3.40
2022-12-08T23:24:42.371Z,3.50
2022-12-08T23:31:42.875Z,3.50
2022-12-08T23:38:43.375Z,3.50
2022-12-08T23:45:44.006Z,3.50
2022-12-08T23:52:44.392Z,3.50
2022-12-08T23:59:44.628Z,3.50
